createdAt,value
2023-01-10T00:00:01.647Z,51.259457
2023-01-10T00:01:01.641Z,51.259525
2023-01-10T00:02:01.611Z,51.259491
2023-01-10T00:03:01.617Z,51.259502
2023-01-10T00:04:01.600Z,51.259464
2023-01-10T00:05:01.640Z,51.259487
2023-01-10T00:06:01.600Z,51.259472
2023-01-10T00:07:01.553Z,51.259552
2023-01-10T00:08:01.552Z,51.259537
2023-01-10T00:09:01.543Z,51.259529
2023-01-10T00:10:01.556Z,51.259529
2023-01-10T00:11:01.523Z,51.259544
2023-01-10T00:12:01.498Z,51.259548
2023-01-10T00:13:01.489Z,51.259487
2023-01-10T00:14:01.488Z,51.259495
2023-01-10T00:15:01.466Z,51.259525
2023-01-10T00:16:01.492Z,51.259575
2023-01-10T00:17:01.450Z,51.259453
2023-01-10T00:18:01.433Z,51.259434
2023-01-10T00:19:01.410Z,51.259426
2023-01-10T00:20:01.416Z,51.259514
2023-01-10T00:21:01.414Z,51.259415
2023-01-10T00:22:01.389Z,51.259441
2023-01-10T00:23:01.391Z,51.259453
2023-01-10T00:24:01.362Z,51.259560
2023-01-10T00:25:01.356Z,51.259563
2023-01-10T00:26:01.388Z,51.259613
2023-01-10T00:27:01.327Z,51.259563
2023-01-10T00:28:01.327Z,51.259659
2023-01-10T00:29:01.304Z,51.259609
2023-01-10T00:30:01.321Z,51.259518
2023-01-10T00:31:01.520Z,51.259575
2023-01-10T00:32:01.271Z,51.259529
2023-01-10T00:33:01.267Z,51.259617
2023-01-10T00:34:01.253Z,51.259487
2023-01-10T00:35:01.236Z,51.259502
2023-01-10T00:36:01.247Z,51.259445
2023-01-10T00:37:01.218Z,51.259438
2023-01-10T00:38:01.210Z,51.259476
2023-01-10T00:39:01.191Z,51.259392
2023-01-10T00:40:01.186Z,51.259426
2023-01-10T00:41:01.188Z,51.259541
2023-01-10T00:42:01.162Z,51.259560
2023-01-10T00:43:01.138Z,51.259495
2023-01-10T00:44:01.137Z,51.259464
2023-01-10T00:45:01.135Z,51.259407
2023-01-10T00:46:01.142Z,51.259510
2023-01-10T00:47:01.093Z,51.259499
2023-01-10T00:48:01.090Z,51.259544
2023-01-10T00:49:01.078Z,51.259525
2023-01-10T00:50:01.081Z,51.259453
2023-01-10T00:51:01.089Z,51.259525
2023-01-10T00:52:01.064Z,51.259579
2023-01-10T00:53:01.032Z,51.259556
2023-01-10T00:54:01.024Z,51.259628
2023-01-10T00:55:01.001Z,51.259594
2023-01-10T00:56:01.016Z,51.259617
2023-01-10T00:57:01.005Z,51.259510
2023-01-10T00:58:00.978Z,51.259483
2023-01-10T00:59:00.955Z,51.259605
2023-01-10T01:00:00.967Z,51.259583
2023-01-10T01:01:01.026Z,51.259560
2023-01-10T01:02:00.949Z,51.259525
2023-01-10T01:03:00.972Z,51.259640
2023-01-10T01:04:00.906Z,51.259579
2023-01-10T01:05:00.913Z,51.259594
2023-01-10T01:06:00.900Z,51.259575
2023-01-10T01:07:00.868Z,51.259563
2023-01-10T01:08:00.868Z,51.259602
2023-01-10T01:09:00.857Z,51.259518
2023-01-10T01:10:00.855Z,51.259594
2023-01-10T01:11:00.862Z,51.259583
2023-01-10T01:12:00.831Z,51.259537
2023-01-10T01:13:00.815Z,51.259586
2023-01-10T01:14:00.812Z,51.259533
2023-01-10T01:15:00.780Z,51.259487
2023-01-10T01:16:00.905Z,51.259510
2023-01-10T01:17:01.755Z,51.259514
2023-01-10T01:18:00.752Z,51.259518
2023-01-10T01:19:00.740Z,51.259529
2023-01-10T01:20:00.739Z,51.259537
2023-01-10T01:21:00.744Z,51.259548
2023-01-10T01:22:00.715Z,51.259544
2023-01-10T01:23:00.701Z,51.259510
2023-01-10T01:24:00.698Z,51.259548
2023-01-10T01:25:00.686Z,51.259548
2023-01-10T01:26:00.694Z,51.259491
2023-01-10T01:27:00.650Z,51.259544
2023-01-10T01:28:00.649Z,51.259483
2023-01-10T01:29:00.627Z,51.259533
2023-01-10T01:30:00.619Z,51.259521
2023-01-10T01:31:00.625Z,51.259449
2023-01-10T01:32:00.596Z,51.259514
2023-01-10T01:33:00.580Z,51.259510
2023-01-10T01:34:00.572Z,51.259495
2023-01-10T01:35:00.559Z,51.259495
2023-01-10T01:36:00.569Z,51.259533
2023-01-10T01:37:00.537Z,51.259552
2023-01-10T01:38:00.530Z,51.259548
2023-01-10T01:39:00.506Z,51.259556
2023-01-10T01:40:00.540Z,51.259624
2023-01-10T01:41:00.491Z,51.259605
2023-01-10T01:42:00.549Z,51.259609
2023-01-10T01:43:00.457Z,51.259537
2023-01-10T01:44:00.456Z,51.259590
2023-01-10T01:45:00.437Z,51.259632
2023-01-10T01:46:00.502Z,51.259575
2023-01-10T01:47:00.437Z,51.259571
2023-01-10T01:48:00.404Z,51.259563
2023-01-10T01:49:00.402Z,51.259583
2023-01-10T01:50:00.391Z,51.259567
2023-01-10T01:51:00.363Z,51.259666
2023-01-10T01:52:00.393Z,51.259747
2023-01-10T01:53:00.359Z,51.259583
2023-01-10T01:54:00.357Z,51.259422
2023-01-10T01:55:00.334Z,51.259480
2023-01-10T01:56:00.308Z,51.259644
2023-01-10T01:57:00.326Z,51.259613
2023-01-10T01:58:00.289Z,51.259373
2023-01-10T01:59:00.276Z,51.259373
2023-01-10T02:00:00.272Z,51.259491
2023-01-10T02:01:00.304Z,51.259666
2023-01-10T02:02:00.287Z,51.259712
2023-01-10T02:03:03.069Z,51.259743
2023-01-10T02:04:01.255Z,51.259563
2023-01-10T02:05:01.208Z,51.259392
2023-01-10T02:06:00.201Z,51.259441
2023-01-10T02:07:00.209Z,51.259434
2023-01-10T02:08:00.179Z,51.259392
2023-01-10T02:09:00.168Z,51.259506
2023-01-10T02:10:00.204Z,51.259483
2023-01-10T02:11:00.131Z,51.259438
2023-01-10T02:12:01.148Z,51.259541
2023-01-10T02:13:00.141Z,51.259575
2023-01-10T02:14:00.151Z,51.259491
2023-01-10T02:15:00.108Z,51.259613
2023-01-10T02:16:00.184Z,51.259743
2023-01-10T02:17:00.108Z,51.259697
2023-01-10T02:18:00.072Z,51.259617
2023-01-10T02:19:00.061Z,51.259567
2023-01-10T02:20:00.049Z,51.259533
2023-01-10T02:21:00.038Z,51.259518
2023-01-10T02:22:00.045Z,51.259468
2023-01-10T02:23:00.028Z,51.259544
2023-01-10T02:24:00.002Z,51.259571
2023-01-10T02:24:59.987Z,51.259533
2023-01-10T02:25:59.962Z,51.259613
2023-01-10T02:26:59.988Z,51.259541
2023-01-10T02:27:59.960Z,51.259453
2023-01-10T02:28:59.943Z,51.259373
2023-01-10T02:29:59.939Z,51.259460
2023-01-10T02:30:59.996Z,51.259563
2023-01-10T02:31:59.929Z,51.259552
2023-01-10T02:33:05.029Z,51.259506
2023-01-10T02:34:01.880Z,51.259544
2023-01-10T02:34:59.879Z,51.259560
2023-01-10T02:35:59.869Z,51.259541
2023-01-10T02:36:59.884Z,51.259552
2023-01-10T02:37:59.846Z,51.259567
2023-01-10T02:38:59.837Z,51.259556
2023-01-10T02:39:59.826Z,51.259537
2023-01-10T02:40:59.809Z,51.259548
2023-01-10T02:41:59.821Z,51.259548
2023-01-10T02:42:59.798Z,51.259571
2023-01-10T02:43:59.796Z,51.259560
2023-01-10T02:44:59.775Z,51.259430
2023-01-10T02:45:59.766Z,51.259407
2023-01-10T02:46:59.776Z,51.259541
2023-01-10T02:47:59.740Z,51.259579
2023-01-10T02:48:59.728Z,51.259544
2023-01-10T02:49:59.721Z,51.259586
2023-01-10T02:50:59.701Z,51.259472
2023-01-10T02:51:59.716Z,51.259453
2023-01-10T02:52:59.682Z,51.259499
2023-01-10T02:53:59.673Z,51.259449
2023-01-10T02:54:59.742Z,51.259460
2023-01-10T02:55:59.652Z,51.259418
2023-01-10T02:56:59.660Z,51.259586
2023-01-10T02:57:59.631Z,51.259548
2023-01-10T02:58:59.617Z,51.259605
2023-01-10T02:59:59.634Z,51.259659
2023-01-10T03:00:59.600Z,51.259609
2023-01-10T03:01:59.679Z,51.259636
2023-01-10T03:02:59.569Z,51.259613
2023-01-10T03:03:59.561Z,51.259590
2023-01-10T03:04:59.654Z,51.259712
2023-01-10T03:05:59.537Z,51.259483
2023-01-10T03:06:59.544Z,51.259579
2023-01-10T03:07:59.522Z,51.259590
2023-01-10T03:08:59.500Z,51.259415
2023-01-10T03:09:59.487Z,51.259571
2023-01-10T03:10:59.474Z,51.259411
2023-01-10T03:11:59.490Z,51.259575
2023-01-10T03:12:59.453Z,51.259689
2023-01-10T03:13:59.439Z,51.259579
2023-01-10T03:15:00.596Z,51.259533
2023-01-10T03:15:59.459Z,51.259491
2023-01-10T03:16:59.423Z,51.259560
2023-01-10T03:17:59.439Z,51.259594
2023-01-10T03:18:59.387Z,51.259663
2023-01-10T03:19:59.380Z,51.259689
2023-01-10T03:20:59.370Z,51.259624
2023-01-10T03:21:59.370Z,51.259575
2023-01-10T03:22:59.339Z,51.259773
2023-01-10T03:23:59.334Z,51.259682
2023-01-10T03:24:59.315Z,51.259693
2023-01-10T03:25:59.302Z,51.259659
2023-01-10T03:26:59.335Z,51.259571
2023-01-10T03:27:59.278Z,51.259586
2023-01-10T03:28:59.256Z,51.259640
2023-01-10T03:29:59.259Z,51.259621
2023-01-10T03:30:59.304Z,51.259666
2023-01-10T03:31:59.259Z,51.259590
2023-01-10T03:32:59.228Z,51.259605
2023-01-10T03:33:59.224Z,51.259766
2023-01-10T03:34:59.204Z,51.259674
2023-01-10T03:35:59.202Z,51.259590
2023-01-10T03:36:59.204Z,51.259514
2023-01-10T03:37:59.177Z,51.259682
2023-01-10T03:38:59.154Z,51.259663
2023-01-10T03:39:59.151Z,51.259510
2023-01-10T03:40:59.127Z,51.259586
2023-01-10T03:41:59.153Z,51.259888
2023-01-10T03:42:59.120Z,51.259762
2023-01-10T03:43:59.103Z,51.259678
2023-01-10T03:44:59.080Z,51.259552
2023-01-10T03:45:59.084Z,51.259640
2023-01-10T03:46:59.088Z,51.259644
2023-01-10T03:47:59.073Z,51.259632
2023-01-10T03:48:59.046Z,51.259666
2023-01-10T03:49:59.029Z,51.259628
2023-01-10T03:50:59.028Z,51.259605
2023-01-10T03:51:59.032Z,51.259571
2023-01-10T03:52:58.996Z,51.259533
2023-01-10T03:53:58.992Z,51.259586
2023-01-10T03:54:58.998Z,51.259613
2023-01-10T03:55:58.970Z,51.259640
2023-01-10T03:56:58.968Z,51.259655
2023-01-10T03:57:58.947Z,51.259678
2023-01-10T03:58:58.933Z,51.259655
2023-01-10T03:59:58.913Z,51.259594
2023-01-10T04:00:59.018Z,51.259472
2023-01-10T04:01:59.101Z,51.259521
2023-01-10T04:02:58.893Z,51.259594
2023-01-10T04:03:58.911Z,51.259575
2023-01-10T04:04:58.872Z,51.259556
2023-01-10T04:05:58.863Z,51.259521
2023-01-10T04:06:58.851Z,51.259502
2023-01-10T04:07:58.820Z,51.259510
2023-01-10T04:08:58.798Z,51.259594
2023-01-10T04:09:58.796Z,51.259605
2023-01-10T04:10:59.801Z,51.259613
2023-01-10T04:11:58.798Z,51.259613
2023-01-10T04:12:58.758Z,51.259602
2023-01-10T04:13:58.784Z,51.259571
2023-01-10T04:14:58.754Z,51.259583
2023-01-10T04:15:58.783Z,51.259521
2023-01-10T04:16:58.736Z,51.259563
2023-01-10T04:17:58.714Z,51.259575
2023-01-10T04:18:58.709Z,51.259613
2023-01-10T04:19:58.710Z,51.259541
2023-01-10T04:20:58.677Z,51.259575
2023-01-10T04:21:58.706Z,51.259537
2023-01-10T04:22:58.673Z,51.259544
2023-01-10T04:23:58.672Z,51.259602
2023-01-10T04:24:58.633Z,51.259560
2023-01-10T04:25:58.630Z,51.259552
2023-01-10T04:26:58.636Z,51.259502
2023-01-10T04:27:58.633Z,51.259525
2023-01-10T04:28:58.612Z,51.259571
2023-01-10T04:29:58.604Z,51.259544
2023-01-10T04:30:58.596Z,51.259575
2023-01-10T04:31:58.571Z,51.259533
2023-01-10T04:32:58.570Z,51.259537
2023-01-10T04:33:58.551Z,51.259502
2023-01-10T04:34:58.538Z,51.259525
2023-01-10T04:35:58.536Z,51.259521
2023-01-10T04:36:58.534Z,51.259521
2023-01-10T04:37:58.533Z,51.259560
2023-01-10T04:38:58.506Z,51.259457
2023-01-10T04:39:58.489Z,51.259491
2023-01-10T04:40:58.491Z,51.259521
2023-01-10T04:41:58.485Z,51.259533
2023-01-10T04:42:58.473Z,51.259491
2023-01-10T04:43:58.440Z,51.259571
2023-01-10T04:44:58.472Z,51.259560
2023-01-10T04:45:58.504Z,51.259666
2023-01-10T04:46:58.432Z,51.259636
2023-01-10T04:47:58.423Z,51.259590
2023-01-10T04:48:58.412Z,51.259670
2023-01-10T04:49:58.396Z,51.259571
2023-01-10T04:50:58.412Z,51.259598
2023-01-10T04:51:58.380Z,51.259563
2023-01-10T04:52:58.390Z,51.259567
2023-01-10T04:53:58.366Z,51.259544
2023-01-10T04:54:58.365Z,51.259583
2023-01-10T04:55:58.324Z,51.259541
2023-01-10T04:56:58.307Z,51.259556
2023-01-10T04:57:58.328Z,51.259476
2023-01-10T04:58:58.297Z,51.259487
2023-01-10T04:59:58.284Z,51.259521
2023-01-10T05:00:58.289Z,51.259735
2023-01-10T05:01:58.348Z,51.259720
2023-01-10T05:02:58.426Z,51.259533
2023-01-10T05:03:58.244Z,51.259613
2023-01-10T05:04:58.217Z,51.259541
2023-01-10T05:05:58.227Z,51.259586
2023-01-10T05:06:58.214Z,51.259541
2023-01-10T05:07:58.220Z,51.259571
2023-01-10T05:08:58.203Z,51.259563
2023-01-10T05:09:58.178Z,51.259521
2023-01-10T05:10:58.166Z,51.259579
2023-01-10T05:11:58.165Z,51.259476
2023-01-10T05:12:58.169Z,51.259552
2023-01-10T05:13:58.142Z,51.259575
2023-01-10T05:14:58.127Z,51.259636
2023-01-10T05:15:58.168Z,51.259697
2023-01-10T05:16:58.095Z,51.259693
2023-01-10T05:17:58.117Z,51.259594
2023-01-10T05:18:58.099Z,51.259510
2023-01-10T05:19:58.074Z,51.259373
2023-01-10T05:20:58.049Z,51.259525
2023-01-10T05:21:58.047Z,51.259571
2023-01-10T05:22:58.055Z,51.259571
2023-01-10T05:23:58.023Z,51.259830
2023-01-10T05:24:58.017Z,51.259804
2023-01-10T05:25:58.001Z,51.259689
2023-01-10T05:26:57.994Z,51.259739
2023-01-10T05:27:57.996Z,51.259621
2023-01-10T05:28:57.961Z,51.259674
2023-01-10T05:29:57.959Z,51.259701
2023-01-10T05:30:57.943Z,51.259525
2023-01-10T05:31:57.976Z,51.259716
2023-01-10T05:32:57.931Z,51.259663
2023-01-10T05:33:57.919Z,51.259602
2023-01-10T05:34:57.912Z,51.259396
2023-01-10T05:35:57.903Z,51.259243
2023-01-10T05:36:57.891Z,51.259499
2023-01-10T05:37:57.889Z,51.259785
2023-01-10T05:38:57.868Z,51.259571
2023-01-10T05:39:57.857Z,51.259659
2023-01-10T05:40:58.998Z,51.259888
2023-01-10T05:41:57.832Z,51.259926
2023-01-10T05:42:57.827Z,51.259892
2023-01-10T05:44:24.217Z,51.259892
2023-01-10T05:44:57.798Z,51.259892
2023-01-10T05:45:57.793Z,51.259556
2023-01-10T05:46:57.773Z,51.259586
2023-01-10T05:47:57.783Z,51.259621
2023-01-10T05:48:57.760Z,51.259640
2023-01-10T05:49:57.743Z,51.259613
2023-01-10T05:50:58.731Z,51.259624
2023-01-10T05:51:57.731Z,51.259495
2023-01-10T05:52:57.735Z,51.259533
2023-01-10T05:53:57.711Z,51.259701
2023-01-10T05:54:57.697Z,51.259682
2023-01-10T05:55:57.711Z,51.259655
2023-01-10T05:56:57.686Z,51.259476
2023-01-10T05:57:57.688Z,51.259396
2023-01-10T05:59:07.799Z,51.259514
2023-01-10T05:59:58.662Z,51.259399
2023-01-10T06:00:57.689Z,51.259567
2023-01-10T06:01:57.709Z,51.259560
2023-01-10T06:02:57.655Z,51.259544
2023-01-10T06:03:57.605Z,51.259541
2023-01-10T06:04:57.595Z,51.259483
2023-01-10T06:05:57.587Z,51.259464
2023-01-10T06:06:57.574Z,51.259525
2023-01-10T06:07:57.595Z,51.259445
2023-01-10T06:08:57.561Z,51.259460
2023-01-10T06:09:57.546Z,51.259422
2023-01-10T06:10:57.544Z,51.259407
2023-01-10T06:11:57.532Z,51.259426
2023-01-10T06:12:57.517Z,51.259460
2023-01-10T06:13:57.520Z,51.259544
2023-01-10T06:14:57.505Z,51.259552
2023-01-10T06:15:57.530Z,51.259579
2023-01-10T06:16:57.484Z,51.259556
2023-01-10T06:17:57.463Z,51.259563
2023-01-10T06:18:57.482Z,51.259575
2023-01-10T06:19:57.453Z,51.259560
2023-01-10T06:20:57.433Z,51.259537
2023-01-10T06:21:57.429Z,51.259586
2023-01-10T06:22:57.422Z,51.259468
2023-01-10T06:23:57.426Z,51.259480
2023-01-10T06:24:57.397Z,51.259533
2023-01-10T06:25:57.383Z,51.259438
2023-01-10T06:26:57.390Z,51.259544
2023-01-10T06:27:57.367Z,51.259632
2023-01-10T06:28:57.383Z,51.259575
2023-01-10T06:29:57.342Z,51.259590
2023-01-10T06:30:57.375Z,51.259537
2023-01-10T06:31:57.333Z,51.259510
2023-01-10T06:32:57.322Z,51.259567
2023-01-10T06:33:57.329Z,51.259602
2023-01-10T06:34:57.301Z,51.259563
2023-01-10T06:35:57.292Z,51.259544
2023-01-10T06:36:57.297Z,51.259392
2023-01-10T06:37:57.260Z,51.259434
2023-01-10T06:38:57.272Z,51.259533
2023-01-10T06:39:57.257Z,51.259575
2023-01-10T06:40:57.245Z,51.259560
2023-01-10T06:41:57.226Z,51.259533
2023-01-10T06:42:57.234Z,51.259331
2023-01-10T06:43:57.238Z,51.259365
2023-01-10T06:44:57.217Z,51.259361
2023-01-10T06:45:57.230Z,51.259502
2023-01-10T06:46:57.184Z,51.259495
2023-01-10T06:47:57.170Z,51.259571
2023-01-10T06:48:57.186Z,51.259689
2023-01-10T06:49:57.147Z,51.259731
2023-01-10T06:50:57.141Z,51.259621
2023-01-10T06:51:57.136Z,51.259590
2023-01-10T06:52:57.133Z,51.259605
2023-01-10T06:53:57.138Z,51.259613
2023-01-10T06:54:57.103Z,51.259602
2023-01-10T06:55:57.100Z,51.259521
2023-01-10T06:56:57.089Z,51.259518
2023-01-10T06:57:57.091Z,51.259548
2023-01-10T06:58:57.083Z,51.259552
2023-01-10T06:59:57.056Z,51.259571
2023-01-10T07:00:57.301Z,51.259586
2023-01-10T07:01:57.183Z,51.259640
2023-01-10T07:02:57.024Z,51.259628
2023-01-10T07:03:57.057Z,51.259605
2023-01-10T07:04:57.107Z,51.259575
2023-01-10T07:05:56.999Z,51.259552
2023-01-10T07:06:56.982Z,51.259533
2023-01-10T07:07:56.978Z,51.259571
2023-01-10T07:08:56.977Z,51.259888
2023-01-10T07:09:56.951Z,51.259819
2023-01-10T07:10:56.943Z,51.259682
2023-01-10T07:11:56.930Z,51.259575
2023-01-10T07:12:56.922Z,51.259640
2023-01-10T07:13:56.922Z,51.259686
2023-01-10T07:14:56.897Z,51.259602
2023-01-10T07:15:56.903Z,51.259563
2023-01-10T07:16:56.877Z,51.259594
2023-01-10T07:17:56.870Z,51.259605
2023-01-10T07:18:56.882Z,51.259598
2023-01-10T07:19:56.849Z,51.259644
2023-01-10T07:20:56.838Z,51.259560
2023-01-10T07:21:56.826Z,51.259567
2023-01-10T07:22:56.841Z,51.259598
2023-01-10T07:23:56.837Z,51.259640
2023-01-10T07:24:56.800Z,51.259598
2023-01-10T07:25:56.779Z,51.259502
2023-01-10T07:26:56.769Z,51.259628
2023-01-10T07:27:56.776Z,51.259594
2023-01-10T07:28:56.773Z,51.259617
2023-01-10T07:29:56.743Z,51.259571
2023-01-10T07:30:56.764Z,51.259480
2023-01-10T07:31:56.723Z,51.259533
2023-01-10T07:32:57.757Z,51.259499
2023-01-10T07:33:56.720Z,51.259533
2023-01-10T07:34:56.689Z,51.259541
2023-01-10T07:35:56.677Z,51.259544
2023-01-10T07:36:56.680Z,51.259583
2023-01-10T07:37:56.650Z,51.259563
2023-01-10T07:38:56.680Z,51.259594
2023-01-10T07:39:56.650Z,51.259594
2023-01-10T07:40:56.638Z,51.259571
2023-01-10T07:41:56.615Z,51.259590
2023-01-10T07:42:56.606Z,51.259602
2023-01-10T07:43:56.616Z,51.259541
2023-01-10T07:44:56.596Z,51.259583
2023-01-10T07:45:56.598Z,51.259586
2023-01-10T07:46:56.558Z,51.259537
2023-01-10T07:47:56.552Z,51.259533
2023-01-10T07:48:56.561Z,51.259548
2023-01-10T07:49:57.523Z,51.259537
2023-01-10T07:50:56.527Z,51.259521
2023-01-10T07:51:56.509Z,51.259567
2023-01-10T07:52:56.519Z,51.259579
2023-01-10T07:53:56.505Z,51.259644
2023-01-10T07:54:56.473Z,51.259556
2023-01-10T07:55:56.471Z,51.259716
2023-01-10T07:56:56.451Z,51.259590
2023-01-10T07:57:56.444Z,51.259548
2023-01-10T07:58:56.456Z,51.259563
2023-01-10T07:59:56.421Z,51.259510
2023-01-10T08:00:56.450Z,51.259514
2023-01-10T08:01:56.402Z,51.259483
2023-01-10T08:02:56.604Z,51.259453
2023-01-10T08:03:56.406Z,51.259472
2023-01-10T08:04:56.365Z,51.259510
2023-01-10T08:05:56.360Z,51.259533
2023-01-10T08:06:56.343Z,51.259464
2023-01-10T08:07:56.340Z,51.259403
2023-01-10T08:08:56.340Z,51.259438
2023-01-10T08:09:56.323Z,51.259480
2023-01-10T08:10:56.337Z,51.259464
2023-01-10T08:11:56.304Z,51.259499
2023-01-10T08:12:57.765Z,51.259426
2023-01-10T08:13:56.286Z,51.259464
2023-01-10T08:14:56.260Z,51.259602
2023-01-10T08:15:56.333Z,51.259624
2023-01-10T08:16:56.236Z,51.259567
2023-01-10T08:17:56.265Z,51.259560
2023-01-10T08:18:56.235Z,51.259422
2023-01-10T08:19:56.196Z,51.259430
2023-01-10T08:20:56.190Z,51.259529
2023-01-10T08:21:56.173Z,51.259548
2023-01-10T08:22:56.161Z,51.259502
2023-01-10T08:23:56.178Z,51.259548
2023-01-10T08:24:56.145Z,51.259571
2023-01-10T08:25:56.133Z,51.259609
2023-01-10T08:26:56.125Z,51.259472
2023-01-10T08:27:56.110Z,51.259556
2023-01-10T08:28:56.108Z,51.259560
2023-01-10T08:29:56.079Z,51.259590
2023-01-10T08:30:56.123Z,51.259525
2023-01-10T08:31:56.066Z,51.259491
2023-01-10T08:32:56.055Z,51.259567
2023-01-10T08:33:56.054Z,51.259518
2023-01-10T08:34:56.031Z,51.259472
2023-01-10T08:35:56.011Z,51.259563
2023-01-10T08:36:56.013Z,51.259617
2023-01-10T08:37:55.999Z,51.259602
2023-01-10T08:38:56.000Z,51.259514
2023-01-10T08:39:55.982Z,51.259499
2023-01-10T08:40:55.970Z,51.259491
2023-01-10T08:41:55.963Z,51.259457
2023-01-10T08:42:55.944Z,51.259518
2023-01-10T08:43:55.952Z,51.259445
2023-01-10T08:44:55.910Z,51.259548
2023-01-10T08:45:55.917Z,51.259583
2023-01-10T08:46:55.931Z,51.259586
2023-01-10T08:47:55.880Z,51.259560
2023-01-10T08:48:55.889Z,51.259617
2023-01-10T08:49:55.846Z,51.259556
2023-01-10T08:50:56.862Z,51.259609
2023-01-10T08:51:55.841Z,51.259632
2023-01-10T08:52:55.829Z,51.259670
2023-01-10T08:53:55.839Z,51.259590
2023-01-10T08:54:55.808Z,51.259518
2023-01-10T08:55:55.797Z,51.259544
2023-01-10T08:56:55.782Z,51.259666
2023-01-10T08:57:55.773Z,51.259541
2023-01-10T08:58:55.783Z,51.259487
2023-01-10T08:59:55.747Z,51.259525
2023-01-10T09:00:55.752Z,51.259682
2023-01-10T09:01:55.778Z,51.259563
2023-01-10T09:02:55.804Z,51.259613
2023-01-10T09:03:55.708Z,51.259567
2023-01-10T09:04:56.686Z,51.259544
2023-01-10T09:05:55.681Z,51.259552
2023-01-10T09:06:55.699Z,51.259560
2023-01-10T09:07:55.689Z,51.259617
2023-01-10T09:08:55.665Z,51.259529
2023-01-10T09:09:55.638Z,51.259521
2023-01-10T09:10:55.608Z,51.259632
2023-01-10T09:11:55.603Z,51.259571
2023-01-10T09:12:55.590Z,51.259754
2023-01-10T09:13:55.585Z,51.259586
2023-01-10T09:14:55.590Z,51.259598
2023-01-10T09:15:55.570Z,51.259567
2023-01-10T09:16:55.542Z,51.259483
2023-01-10T09:17:55.547Z,51.259529
2023-01-10T09:18:55.523Z,51.259609
2023-01-10T09:19:55.546Z,51.259617
2023-01-10T09:20:55.513Z,51.259670
2023-01-10T09:21:55.501Z,51.259708
2023-01-10T09:22:55.491Z,51.259613
2023-01-10T09:23:55.474Z,51.259655
2023-01-10T09:24:55.489Z,51.259621
2023-01-10T09:25:55.451Z,51.259571
2023-01-10T09:26:55.448Z,51.259583
2023-01-10T09:27:55.430Z,51.259624
2023-01-10T09:28:55.439Z,51.259529
2023-01-10T09:29:55.431Z,51.259502
2023-01-10T09:30:55.398Z,51.259537
2023-01-10T09:31:55.384Z,51.259533
2023-01-10T09:32:55.357Z,51.259563
2023-01-10T09:33:55.361Z,51.259598
2023-01-10T09:34:55.371Z,51.259476
2023-01-10T09:35:55.333Z,51.259487
2023-01-10T09:36:55.310Z,51.259472
2023-01-10T09:37:55.325Z,51.259563
2023-01-10T09:38:55.300Z,51.259537
2023-01-10T09:39:55.302Z,51.259541
2023-01-10T09:40:55.275Z,51.259281
2023-01-10T09:41:55.262Z,51.259438
2023-01-10T09:42:55.249Z,51.259457
2023-01-10T09:43:55.233Z,51.259602
2023-01-10T09:44:55.235Z,51.259556
2023-01-10T09:45:55.224Z,51.259525
2023-01-10T09:46:55.234Z,51.259567
2023-01-10T09:47:55.188Z,51.259556
2023-01-10T09:48:55.195Z,51.259567
2023-01-10T09:49:55.186Z,51.259521
2023-01-10T09:50:55.158Z,51.259506
2023-01-10T09:51:55.695Z,51.259518
2023-01-10T09:52:55.126Z,51.259544
2023-01-10T09:53:57.771Z,51.259521
2023-01-10T09:54:57.132Z,51.259537
2023-01-10T09:55:55.107Z,51.259487
2023-01-10T09:56:55.098Z,51.259510
2023-01-10T09:57:55.078Z,51.259495
2023-01-10T09:58:56.068Z,51.259541
2023-01-10T09:59:55.075Z,51.259537
2023-01-10T10:00:55.085Z,51.259556
2023-01-10T10:01:55.034Z,51.259495
2023-01-10T10:02:55.076Z,51.259457
2023-01-10T10:03:55.189Z,51.259453
2023-01-10T10:04:55.015Z,51.259502
2023-01-10T10:06:03.808Z,51.259495
2023-01-10T10:06:56.999Z,51.259449
2023-01-10T10:07:54.979Z,51.259499
2023-01-10T10:08:54.969Z,51.259567
2023-01-10T10:09:54.969Z,51.259548
2023-01-10T10:10:54.947Z,51.259506
2023-01-10T10:11:54.938Z,51.259403
2023-01-10T10:12:54.919Z,51.259361
2023-01-10T10:13:54.911Z,51.259396
2023-01-10T10:14:54.931Z,51.259460
2023-01-10T10:15:54.928Z,51.259483
2023-01-10T10:16:54.876Z,51.259533
2023-01-10T10:17:54.870Z,51.259533
2023-01-10T10:18:54.867Z,51.259460
2023-01-10T10:19:54.880Z,51.259529
2023-01-10T10:20:54.835Z,51.259415
2023-01-10T10:21:54.838Z,51.259487
2023-01-10T10:22:54.824Z,51.259514
2023-01-10T10:23:54.807Z,51.259480
2023-01-10T10:24:54.823Z,51.259453
2023-01-10T10:25:54.802Z,51.259579
2023-01-10T10:26:54.805Z,51.259575
2023-01-10T10:27:54.779Z,51.259472
2023-01-10T10:28:55.590Z,51.259457
2023-01-10T10:29:54.781Z,51.259392
2023-01-10T10:30:54.756Z,51.259483
2023-01-10T10:31:54.740Z,51.259460
2023-01-10T10:32:54.721Z,51.259544
2023-01-10T10:33:54.718Z,51.259514
2023-01-10T10:34:54.756Z,51.259483
2023-01-10T10:35:54.686Z,51.259476
2023-01-10T10:36:54.682Z,51.259548
2023-01-10T10:37:54.672Z,51.259556
2023-01-10T10:38:54.689Z,51.259518
2023-01-10T10:39:54.678Z,51.259422
2023-01-10T10:40:54.637Z,51.259441
2023-01-10T10:41:54.657Z,51.259495
2023-01-10T10:42:54.623Z,51.259460
2023-01-10T10:43:54.612Z,51.259563
2023-01-10T10:44:54.621Z,51.259544
2023-01-10T10:45:54.631Z,51.259434
2023-01-10T10:46:54.605Z,51.259575
2023-01-10T10:47:54.581Z,51.259598
2023-01-10T10:48:54.572Z,51.259571
2023-01-10T10:49:54.581Z,51.259529
2023-01-10T10:50:54.545Z,51.259636
2023-01-10T10:51:54.568Z,51.259602
2023-01-10T10:52:54.523Z,51.259602
2023-01-10T10:53:54.515Z,51.259731
2023-01-10T10:54:54.529Z,51.259533
2023-01-10T10:55:54.489Z,51.259525
2023-01-10T10:56:54.475Z,51.259399
2023-01-10T10:58:00.578Z,51.259460
2023-01-10T10:58:56.474Z,51.259495
2023-01-10T10:59:54.474Z,51.259506
2023-01-10T11:00:54.620Z,51.259510
2023-01-10T11:01:54.531Z,51.259529
2023-01-10T11:02:54.425Z,51.259598
2023-01-10T11:03:54.414Z,51.259640
2023-01-10T11:04:54.471Z,51.259628
2023-01-10T11:05:54.392Z,51.259552
2023-01-10T11:06:54.392Z,51.259533
2023-01-10T11:07:54.376Z,51.259506
2023-01-10T11:08:54.363Z,51.259453
2023-01-10T11:09:54.361Z,51.259411
2023-01-10T11:10:54.359Z,51.259403
2023-01-10T11:11:54.328Z,51.259476
2023-01-10T11:12:54.325Z,51.259586
2023-01-10T11:13:54.309Z,51.259556
2023-01-10T11:14:54.326Z,51.259598
2023-01-10T11:15:56.165Z,51.259575
2023-01-10T11:16:55.287Z,51.259655
2023-01-10T11:17:54.271Z,51.259686
2023-01-10T11:18:54.280Z,51.259560
2023-01-10T11:19:54.280Z,51.259563
2023-01-10T11:20:54.288Z,51.259544
2023-01-10T11:21:54.234Z,51.259583
2023-01-10T11:22:54.242Z,51.259602
2023-01-10T11:23:54.226Z,51.259502